Saturday, October 25, 2014
23:40 UTC
  |  Log In   |  Register Free
Airport Search:

Greater Portsmouth Regional Airport
(KPMH)

Greater Portsmouth Regional Airport Diagram
No Airport Diagram Available

FAA data valid effective September 18, 2014 - November 13, 2014 (unless otherwise noted).

 
 
 
 
 
 
 
 
 
 
 
 
 
 

Current Aviation Weather for Greater Portsmouth Regional Airport (KPMH)

METAR data is unavailable for PMH. The nearest METAR location is at KDWU (17.9 nm SE from PMH).

The most recent METAR observation for KDWU was updated at: 2312
METAR Summary (Translated METAR)
KDWU
252255Z AUTO 25003KT 10SM CLR 18/11 A2990 RMK AO1
(17.9 nm SE from KPMH)
KHTS
252251Z 24005KT 10SM CLR 17/12 A2992 RMK AO2 SLP129 T01720122
(31.5 nm SE from KPMH)
TAF Summary (Translated TAF)
KHTS
252100Z 2521/2618 25008G16KT P6SM SCT025 FM260100 26007KT P6SM SKC
  Airport Weather Conditions for KPMH

Current weather conditions are
not available for PMH


The nearest NOAA weather station
is at DWU, (17.9 nm SE from PMH)
  
 Current Weather at DWU
64° F
Fair
West winds at 3.5 mph
DWU NOAA Radar

Pressure: 29.90 in
Humidity: 64%
Wind: West at 3.5 MPH (3 KT)
Dew Point: 51.8°F
Visibility: 10.00 mi


Airport Weather Forecast for KPMH

Translated METAR and TAF for KHTS
Translated METAR for KHTS (2335 UTC 25 October 2014)
found at http://aviationweather.gov/adds/metars/
 
METAR text: KHTS 252251Z 24005KT 10SM CLR 17/12 A2992 RMK AO2 SLP129 T01720122
Conditions at: KHTS (HUNTINGTON , WV, US) observed 2251 UTC 25 October 2014
Temperature: 17.2°C (63°F)
Dewpoint: 12.2°C (54°F) [RH = 72%]
Pressure (altimeter): 29.92 inches Hg (1013.3 mb)
[Sea-level pressure: 1012.9 mb]
Winds: from the WSW (240 degrees) at 6 MPH (5 knots; 2.6 m/s)
Visibility: 10 or more miles (16+ km)
Ceiling: at least 12,000 feet AGL
Clouds: sky clear below 12,000 feet AGL
Weather: no significant weather observed at this time
Translated TAF for KHTS
Forecast for: KHTS (HUNTINGTON , WV, US)
TAF Text: KHTS 252320Z 2600/2624 24006KT P6SM FEW030
Forecast period: 0000 to 0500 UTC 26 October 2014
Forecast type: FROM: standard forecast or significant change
Winds: from the WSW (240 degrees) at 7 MPH (6 knots; 3.1 m/s)
Visibility: 6 or more miles (10+ km)
Clouds: few clouds at 3000 feet AGL
Weather: no significant weather forecast for this period
TAF Text: FM260500 30004KT P6SM SKC
Forecast period: 0500 UTC 26 October 2014 to 0000 UTC 27 October 2014
Forecast type: FROM: standard forecast or significant change
Winds: from the WNW (300 degrees) at 5 MPH (4 knots; 2.1 m/s)
Visibility: 6 or more miles (10+ km)
Clouds: clear skies
Weather: no significant weather forecast for this period

Find All Airport Services Find A Hotel Find A Rental Car Find A Golf Course Find A Restaurant $100 Hamburger



FBO's on the Field
FBO Company Facility Photos Services Transportation Aviation Fuel Prices: Prices include tax
Catering Weather Repair Courtesy Rental Type 100LL JetA JetA+ MOGAS 8087
 
Chasteen Aviation, Inc.

This FBO has not yet been rated
FS: Phillips 66
Last Updated: Oct-13
Login to update fuel prices
SS:
Contact Chasteen Aviation, Inc.More FBO Information
 
Add another FBO Facility Photos Catering Weather Repair Courtesy Rental Type 100LL JetA JetA+ MOGAS 8087
Services Transportation Aviation Fuel Prices: Prices include tax


model-print
model-print
model-print
model-print